Time;durP1;ratioP1;P1;durP2;ratioP2;P2;SDS_P1;SDS_P2;PMS_P1;PMS_P2;Temp;Humidity;BMP_temperature;BMP_pressure;BME280_temperature;BME280_humidity;BME280_pressure;Samples;Min_cycle;Max_cycle;Signal;HPM_P1;HPM_P2
2023/04/29 00:00:10;;;;;;;50.60;45.93;;;;;;;;;;4997627;28;20224;-85
2023/04/29 00:02:39;;;;;;;50.17;45.50;;;;;;;;;;4975633;28;20239;-84
2023/04/29 00:05:05;;;;;;;49.77;45.07;;;;;;;;;;4982186;28;20226;-84
2023/04/29 00:07:36;;;;;;;49.17;44.40;;;;;;;;;;4973554;28;20227;-84
2023/04/29 00:10:02;;;;;;;49.13;44.47;;;;;;;;;;4994602;28;20212;-84
2023/04/29 00:12:30;;;;;;;50.73;45.80;;;;;;;;;;4964689;28;20220;-85
2023/04/29 00:14:59;;;;;;;51.00;46.20;;;;;;;;;;4985477;28;20257;-84
2023/04/29 00:17:27;;;;;;;52.23;47.23;;;;;;;;;;4993998;28;20227;-84
2023/04/29 00:19:53;;;;;;;51.30;46.50;;;;;;;;;;4987597;28;20244;-84
2023/04/29 00:22:21;;;;;;;51.57;46.47;;;;;;;;;;5023946;28;20645;-84
2023/04/29 00:24:47;;;;;;;52.07;46.97;;;;;;;;;;4987846;28;20224;-83
2023/04/29 00:27:16;;;;;;;49.50;44.73;;;;;;;;;;4988817;28;20699;-83
2023/04/29 00:29:44;;;;;;;50.70;45.60;;;;;;;;;;4995801;28;20223;-84
2023/04/29 00:32:10;;;;;;;53.90;48.43;;;;;;;;;;4994409;28;20246;-84
2023/04/29 00:34:37;;;;;;;53.40;48.10;;;;;;;;;;5031895;28;20283;-84
2023/04/29 00:37:05;;;;;;;52.23;46.77;;;;;;;;;;5000744;28;20223;-82
2023/04/29 00:39:33;;;;;;;53.10;47.60;;;;;;;;;;5010197;28;20224;-84
2023/04/29 00:41:59;;;;;;;52.97;47.77;;;;;;;;;;5000011;28;20224;-84
2023/04/29 00:44:24;;;;;;;52.00;46.70;;;;;;;;;;4983161;28;20232;-83
2023/04/29 00:46:50;;;;;;;54.93;49.27;;;;;;;;;;4997758;28;20217;-85
2023/04/29 00:49:16;;;;;;;53.73;48.27;;;;;;;;;;4995361;28;20212;-84
2023/04/29 00:51:41;;;;;;;54.87;49.27;;;;;;;;;;4998106;28;20703;-85
2023/04/29 00:54:07;;;;;;;53.50;48.07;;;;;;;;;;4972621;28;20461;-85
2023/04/29 00:56:35;;;;;;;59.00;52.70;;;;;;;;;;5003501;28;20217;-85
2023/04/29 00:59:03;;;;;;;57.63;51.53;;;;;;;;;;5012881;28;20220;-83
2023/04/29 01:01:31;;;;;;;57.10;51.13;;;;;;;;;;5019781;28;20220;-83
2023/04/29 01:04:01;;;;;;;58.90;52.53;;;;;;;;;;5018670;28;20240;-83
2023/04/29 01:06:31;;;;;;;65.20;55.93;;;;;;;;;;5019116;28;20244;-84
2023/04/29 01:09:00;;;;;;;63.13;55.40;;;;;;;;;;5019701;28;20217;-83
2023/04/29 01:11:32;;;;;;;64.47;55.87;;;;;;;;;;5046199;28;20260;-82
2023/04/29 01:14:02;;;;;;;69.33;56.47;;;;;;;;;;4998655;28;20240;-83
2023/04/29 01:16:48;;;;;;;63.83;56.70;;;;;;;;;;5010924;28;20901;-83
2023/04/29 01:19:22;;;;;;;64.63;56.53;;;;;;;;;;4995768;28;20275;-84
2023/04/29 01:21:47;;;;;;;62.77;54.73;;;;;;;;;;5018894;28;20228;-82
2023/04/29 01:24:14;;;;;;;65.13;55.87;;;;;;;;;;4996164;28;20219;-83
2023/04/29 01:26:45;;;;;;;65.13;55.60;;;;;;;;;;5006663;28;20235;-83
2023/04/29 01:29:47;;;;;;;68.27;56.13;;;;;;;;;;5017074;28;20271;-84
2023/04/29 01:32:19;;;;;;;63.20;53.93;;;;;;;;;;5033026;28;20212;-83
2023/04/29 01:35:16;;;;;;;58.97;52.50;;;;;;;;;;5017202;28;20228;-83
2023/04/29 01:37:58;;;;;;;57.97;51.83;;;;;;;;;;5009229;28;20213;-84
2023/04/29 01:40:37;;;;;;;56.40;50.23;;;;;;;;;;5001959;28;20231;-85
2023/04/29 01:43:10;;;;;;;56.23;49.90;;;;;;;;;;4993009;28;20243;-82
2023/04/29 01:45:40;;;;;;;55.77;49.57;;;;;;;;;;5004262;28;20219;-83
2023/04/29 01:48:08;;;;;;;57.47;50.27;;;;;;;;;;4997887;28;20227;-84
2023/04/29 01:50:34;;;;;;;54.13;48.10;;;;;;;;;;4993751;28;20217;-84
2023/04/29 01:53:22;;;;;;;53.30;47.57;;;;;;;;;;5020296;28;20228;-84
2023/04/29 01:55:50;;;;;;;55.80;48.83;;;;;;;;;;4993629;28;20276;-83
2023/04/29 01:58:27;;;;;;;51.83;46.40;;;;;;;;;;4986045;28;20227;-85
2023/04/29 02:01:04;;;;;;;51.57;46.17;;;;;;;;;;5013957;28;20211;-83
2023/04/29 02:03:32;;;;;;;50.47;45.13;;;;;;;;;;5002591;28;20219;-83
2023/04/29 02:06:00;;;;;;;50.60;45.43;;;;;;;;;;5002354;28;20488;-82
2023/04/29 02:08:28;;;;;;;48.73;43.60;;;;;;;;;;5018484;28;20225;-83
2023/04/29 02:10:57;;;;;;;48.20;43.23;;;;;;;;;;5012427;28;20221;-84
2023/04/29 02:13:41;;;;;;;48.37;43.30;;;;;;;;;;5015327;28;20215;-84
2023/04/29 02:16:17;;;;;;;46.07;41.27;;;;;;;;;;4998653;28;20271;-83
2023/04/29 02:18:52;;;;;;;47.80;42.33;;;;;;;;;;5013731;28;20553;-83
2023/04/29 02:21:19;;;;;;;48.50;43.17;;;;;;;;;;5010505;28;20559;-85
2023/04/29 02:23:45;;;;;;;47.53;42.63;;;;;;;;;;5017930;28;20219;-83
2023/04/29 02:26:14;;;;;;;47.90;43.07;;;;;;;;;;5008313;28;20271;-81
2023/04/29 02:28:45;;;;;;;49.30;43.93;;;;;;;;;;4993602;28;20224;-83
2023/04/29 02:31:11;;;;;;;50.77;45.47;;;;;;;;;;5013908;28;20224;-83
2023/04/29 02:33:36;;;;;;;50.30;43.83;;;;;;;;;;5000433;28;20258;-83
2023/04/29 02:36:04;;;;;;;51.40;44.10;;;;;;;;;;5001575;28;20246;-84
2023/04/29 02:38:30;;;;;;;49.13;43.10;;;;;;;;;;4999266;28;20236;-86
2023/04/29 02:40:56;;;;;;;48.57;43.33;;;;;;;;;;5006950;28;20227;-84
2023/04/29 02:43:22;;;;;;;47.67;42.63;;;;;;;;;;4998232;28;20231;-82
2023/04/29 02:45:50;;;;;;;47.93;42.83;;;;;;;;;;5002043;28;20228;-85
2023/04/29 02:48:15;;;;;;;51.40;42.63;;;;;;;;;;5005326;28;20216;-83
2023/04/29 02:50:41;;;;;;;47.53;41.40;;;;;;;;;;4992044;28;20268;-82
2023/04/29 02:53:09;;;;;;;47.97;42.57;;;;;;;;;;4991387;28;20251;-84
2023/04/29 02:55:34;;;;;;;50.33;42.60;;;;;;;;;;4999351;28;20276;-82
2023/04/29 02:58:05;;;;;;;49.37;41.97;;;;;;;;;;5002114;28;20196;-84
2023/04/29 03:00:31;;;;;;;47.27;40.60;;;;;;;;;;4995808;28;20218;-84
2023/04/29 03:02:57;;;;;;;47.13;42.07;;;;;;;;;;5017301;28;20233;-84
2023/04/29 03:05:22;;;;;;;46.07;40.53;;;;;;;;;;5001800;28;20409;-85
2023/04/29 03:07:48;;;;;;;47.97;40.87;;;;;;;;;;5009395;28;20308;-84
2023/04/29 03:10:18;;;;;;;47.43;40.87;;;;;;;;;;5001902;28;20268;-83
2023/04/29 03:12:44;;;;;;;45.23;39.83;;;;;;;;;;4993415;28;20246;-85
2023/04/29 03:15:12;;;;;;;45.70;39.90;;;;;;;;;;4976292;28;20217;-86
2023/04/29 03:17:38;;;;;;;44.77;40.00;;;;;;;;;;4988282;28;20304;-86
2023/04/29 03:20:09;;;;;;;44.03;39.37;;;;;;;;;;4982869;28;21031;-86
2023/04/29 03:22:35;;;;;;;42.40;37.93;;;;;;;;;;4997437;28;20226;-85
2023/04/29 03:25:02;;;;;;;41.93;37.47;;;;;;;;;;4992122;28;20228;-86
2023/04/29 03:27:28;;;;;;;42.50;37.27;;;;;;;;;;4983018;28;20225;-85
2023/04/29 03:29:58;;;;;;;41.70;36.47;;;;;;;;;;4984020;28;20254;-86
2023/04/29 03:32:27;;;;;;;39.13;35.00;;;;;;;;;;4983582;28;20227;-85
2023/04/29 03:34:55;;;;;;;40.03;35.67;;;;;;;;;;4999136;28;20223;-86
2023/04/29 03:37:34;;;;;;;39.43;35.20;;;;;;;;;;4989868;28;20225;-85
2023/04/29 03:40:15;;;;;;;39.90;35.57;;;;;;;;;;5001889;28;20711;-84
2023/04/29 03:42:43;;;;;;;39.57;35.30;;;;;;;;;;4996048;28;20224;-86
2023/04/29 03:45:11;;;;;;;38.70;34.70;;;;;;;;;;4973413;28;20551;-84
2023/04/29 03:47:40;;;;;;;43.00;35.70;;;;;;;;;;4998311;28;20311;-85
2023/04/29 03:50:09;;;;;;;41.63;35.07;;;;;;;;;;4998823;28;20270;-85
2023/04/29 03:52:38;;;;;;;38.10;34.03;;;;;;;;;;4986704;28;20228;-85
2023/04/29 03:55:09;;;;;;;37.20;33.20;;;;;;;;;;4984784;28;20223;-85
2023/04/29 03:57:35;;;;;;;37.50;33.47;;;;;;;;;;4997805;28;20217;-84
2023/04/29 04:00:04;;;;;;;36.00;32.30;;;;;;;;;;4984983;28;20226;-87
2023/04/29 04:02:38;;;;;;;35.77;31.90;;;;;;;;;;4994928;28;20305;-84
2023/04/29 04:05:04;;;;;;;35.27;31.57;;;;;;;;;;4980193;28;20224;-85
2023/04/29 04:07:30;;;;;;;34.90;31.33;;;;;;;;;;4982851;28;20239;-87
2023/04/29 04:10:31;;;;;;;34.33;30.83;;;;;;;;;;4935398;28;20695;-85
2023/04/29 04:13:03;;;;;;;33.93;30.50;;;;;;;;;;5004550;28;20603;-85
2023/04/29 04:15:29;;;;;;;33.40;30.10;;;;;;;;;;4989916;28;20228;-85
2023/04/29 04:17:58;;;;;;;34.83;30.77;;;;;;;;;;5010717;28;20232;-87
2023/04/29 04:20:23;;;;;;;34.47;31.03;;;;;;;;;;4996947;28;20300;-85
2023/04/29 04:22:49;;;;;;;34.40;30.80;;;;;;;;;;4996967;28;20245;-86
2023/04/29 04:25:22;;;;;;;33.93;30.43;;;;;;;;;;4959388;28;20216;-85
2023/04/29 04:27:48;;;;;;;36.60;32.67;;;;;;;;;;4978983;28;20231;-86
2023/04/29 04:30:24;;;;;;;35.23;31.73;;;;;;;;;;4963880;28;20280;-86
2023/04/29 04:32:53;;;;;;;35.80;32.23;;;;;;;;;;4982263;28;20622;-86
2023/04/29 04:35:19;;;;;;;34.83;31.23;;;;;;;;;;4997976;28;20235;-84
2023/04/29 04:37:45;;;;;;;37.77;34.07;;;;;;;;;;4980352;28;20216;-86
2023/04/29 04:40:14;;;;;;;39.87;35.67;;;;;;;;;;4996071;28;20212;-85
2023/04/29 04:42:59;;;;;;;38.80;34.87;;;;;;;;;;4987717;28;20232;-86
2023/04/29 04:45:28;;;;;;;40.70;36.57;;;;;;;;;;4976448;28;20243;-86
2023/04/29 04:47:56;;;;;;;39.43;35.63;;;;;;;;;;4980703;28;20220;-84
2023/04/29 04:50:29;;;;;;;40.07;35.87;;;;;;;;;;4993343;28;20218;-88
2023/04/29 04:52:59;;;;;;;42.33;37.77;;;;;;;;;;4955582;28;20228;-85
2023/04/29 04:55:43;;;;;;;40.43;36.47;;;;;;;;;;4999964;28;20252;-87
2023/04/29 04:58:09;;;;;;;39.93;35.87;;;;;;;;;;4987496;28;20216;-85
2023/04/29 05:00:35;;;;;;;42.17;37.97;;;;;;;;;;5003626;28;20228;-86
2023/04/29 05:03:01;;;;;;;42.97;38.87;;;;;;;;;;4975850;28;20795;-84
2023/04/29 05:05:26;;;;;;;49.10;44.03;;;;;;;;;;4998390;28;20227;-83
2023/04/29 05:07:53;;;;;;;47.73;42.80;;;;;;;;;;4997016;28;20231;-88
2023/04/29 05:10:25;;;;;;;48.00;43.23;;;;;;;;;;4998138;28;20301;-85
2023/04/29 05:12:55;;;;;;;50.13;44.73;;;;;;;;;;5005875;28;20220;-86
2023/04/29 05:15:21;;;;;;;49.57;44.27;;;;;;;;;;4999267;28;20219;-86
2023/04/29 05:17:49;;;;;;;48.73;43.47;;;;;;;;;;5002980;28;20263;-85
2023/04/29 05:20:15;;;;;;;50.50;45.17;;;;;;;;;;5004384;28;20216;-85
2023/04/29 05:22:43;;;;;;;49.87;44.73;;;;;;;;;;4993065;28;20235;-85
2023/04/29 05:25:09;;;;;;;50.77;45.57;;;;;;;;;;4997575;28;20287;-86
2023/04/29 05:27:35;;;;;;;46.80;42.10;;;;;;;;;;4994393;28;20630;-85
2023/04/29 05:30:06;;;;;;;46.47;41.77;;;;;;;;;;4989835;28;20250;-86
2023/04/29 05:32:32;;;;;;;43.80;39.27;;;;;;;;;;4990476;28;20794;-85
2023/04/29 05:34:58;;;;;;;45.80;41.30;;;;;;;;;;4996086;28;20229;-85
2023/04/29 05:37:25;;;;;;;44.10;39.40;;;;;;;;;;4977142;28;20221;-85
2023/04/29 05:40:04;;;;;;;44.53;40.03;;;;;;;;;;4985032;28;20276;-85
2023/04/29 05:42:31;;;;;;;41.63;37.50;;;;;;;;;;4981177;28;20230;-84
2023/04/29 05:45:00;;;;;;;39.33;35.47;;;;;;;;;;4994523;28;20227;-85
2023/04/29 05:47:26;;;;;;;39.90;35.80;;;;;;;;;;4974224;28;20216;-87
2023/04/29 05:49:53;;;;;;;39.63;35.80;;;;;;;;;;5009494;28;20242;-84
2023/04/29 05:52:22;;;;;;;36.27;33.03;;;;;;;;;;5012426;28;20209;-86
2023/04/29 05:54:52;;;;;;;35.67;32.17;;;;;;;;;;4997209;28;20220;-86
2023/04/29 05:57:17;;;;;;;35.97;32.43;;;;;;;;;;4987389;28;20212;-85
2023/04/29 05:59:43;;;;;;;35.80;32.50;;;;;;;;;;4997780;28;20220;-85
2023/04/29 06:02:10;;;;;;;33.77;30.77;;;;;;;;;;4991105;28;20215;-87
2023/04/29 06:04:39;;;;;;;35.10;31.73;;;;;;;;;;4987691;28;20224;-88
2023/04/29 06:07:17;;;;;;;35.53;32.13;;;;;;;;;;4985246;28;20273;-88
2023/04/29 06:10:07;;;;;;;33.80;30.70;;;;;;;;;;4969899;28;20220;-88
2023/04/29 06:12:53;;;;;;;33.87;30.73;;;;;;;;;;4996651;28;20708;-89
2023/04/29 06:15:24;;;;;;;34.63;31.10;;;;;;;;;;4986662;28;20697;-87
2023/04/29 06:17:50;;;;;;;31.90;28.97;;;;;;;;;;5015140;28;20295;-88
2023/04/29 06:20:23;;;;;;;30.23;27.33;;;;;;;;;;4978414;28;20204;-87
2023/04/29 06:22:48;;;;;;;28.27;25.70;;;;;;;;;;4998381;28;20236;-87
2023/04/29 06:25:16;;;;;;;25.43;23.20;;;;;;;;;;4979707;28;20310;-86
2023/04/29 06:27:51;;;;;;;24.37;21.93;;;;;;;;;;4996526;28;20615;-86
2023/04/29 06:30:22;;;;;;;23.40;21.30;;;;;;;;;;4999891;28;20312;-86
2023/04/29 06:32:50;;;;;;;23.97;21.67;;;;;;;;;;4997051;28;20263;-86
2023/04/29 06:35:18;;;;;;;23.03;20.90;;;;;;;;;;4977424;28;20703;-87
2023/04/29 06:37:51;;;;;;;23.17;21.03;;;;;;;;;;4984926;28;20282;-86
2023/04/29 06:40:32;;;;;;;23.20;21.00;;;;;;;;;;5001421;28;20330;-86
2023/04/29 06:43:16;;;;;;;22.77;20.57;;;;;;;;;;5000820;28;20234;-86
2023/04/29 06:46:08;;;;;;;21.53;19.47;;;;;;;;;;4980029;28;20228;-86
2023/04/29 06:48:39;;;;;;;20.17;18.27;;;;;;;;;;4974868;28;20220;-87
2023/04/29 06:51:04;;;;;;;20.43;18.50;;;;;;;;;;4986006;28;20228;-85
2023/04/29 06:53:36;;;;;;;20.43;18.43;;;;;;;;;;4991520;28;20269;-86
2023/04/29 06:56:07;;;;;;;19.73;17.93;;;;;;;;;;4978344;28;20260;-85
2023/04/29 06:58:33;;;;;;;19.83;17.93;;;;;;;;;;4996556;28;20689;-87
2023/04/29 07:00:59;;;;;;;19.30;17.47;;;;;;;;;;4995359;28;20240;-86
2023/04/29 07:03:27;;;;;;;18.83;17.07;;;;;;;;;;4966874;28;20229;-87
2023/04/29 07:05:55;;;;;;;18.47;16.90;;;;;;;;;;4980205;28;20228;-87
2023/04/29 07:08:27;;;;;;;17.57;15.97;;;;;;;;;;4988270;28;20281;-86
2023/04/29 07:10:56;;;;;;;18.20;16.40;;;;;;;;;;4976430;28;20713;-86
2023/04/29 07:13:23;;;;;;;17.20;15.50;;;;;;;;;;4996263;28;20217;-87
2023/04/29 07:15:50;;;;;;;16.63;15.03;;;;;;;;;;4984096;28;20224;-86
2023/04/29 07:18:18;;;;;;;16.47;14.97;;;;;;;;;;4996942;28;20216;-85
2023/04/29 07:20:45;;;;;;;16.53;15.00;;;;;;;;;;4984331;28;20227;-87
2023/04/29 07:23:13;;;;;;;16.60;15.10;;;;;;;;;;5006025;28;20236;-86
2023/04/29 07:25:39;;;;;;;17.43;15.73;;;;;;;;;;4994277;28;20240;-85
2023/04/29 07:28:08;;;;;;;17.90;16.10;;;;;;;;;;4982985;28;20224;-87
2023/04/29 07:30:33;;;;;;;17.57;15.93;;;;;;;;;;4993793;28;20220;-86
2023/04/29 07:32:59;;;;;;;17.73;15.97;;;;;;;;;;4994496;28;20711;-87
2023/04/29 07:35:27;;;;;;;17.17;15.40;;;;;;;;;;4975858;28;20231;-85
2023/04/29 07:37:58;;;;;;;15.87;14.50;;;;;;;;;;4978896;28;20225;-87
2023/04/29 07:40:24;;;;;;;16.63;15.10;;;;;;;;;;4998710;28;20247;-85
2023/04/29 07:42:51;;;;;;;16.67;15.03;;;;;;;;;;4998704;28;20259;-86
2023/04/29 07:45:17;;;;;;;16.07;14.57;;;;;;;;;;5003935;28;20776;-87
2023/04/29 07:47:43;;;;;;;16.60;14.97;;;;;;;;;;4982088;28;20220;-85
2023/04/29 07:50:09;;;;;;;17.07;15.47;;;;;;;;;;4985346;28;20220;-86
2023/04/29 07:52:39;;;;;;;16.07;14.67;;;;;;;;;;4994786;28;20231;-88
2023/04/29 07:55:05;;;;;;;16.30;14.70;;;;;;;;;;4978023;28;20328;-86
2023/04/29 07:57:31;;;;;;;15.60;14.30;;;;;;;;;;4962337;28;20220;-88
2023/04/29 07:59:56;;;;;;;15.83;14.33;;;;;;;;;;4996581;28;20220;-88
2023/04/29 08:02:22;;;;;;;14.93;13.60;;;;;;;;;;4994697;28;20233;-84
2023/04/29 08:04:50;;;;;;;15.57;14.07;;;;;;;;;;4996132;28;20335;-87
2023/04/29 08:07:16;;;;;;;14.37;13.00;;;;;;;;;;4983638;28;21255;-90
2023/04/29 08:09:42;;;;;;;15.07;13.47;;;;;;;;;;4979848;28;20295;-90
2023/04/29 08:12:09;;;;;;;14.13;12.63;;;;;;;;;;4962438;28;20227;-85
2023/04/29 08:14:35;;;;;;;13.13;11.93;;;;;;;;;;4988654;28;20228;-85
2023/04/29 08:17:03;;;;;;;12.90;11.60;;;;;;;;;;4994787;28;20217;-86
2023/04/29 08:19:31;;;;;;;12.93;11.63;;;;;;;;;;4997508;28;20224;-86
2023/04/29 08:21:57;;;;;;;13.27;11.87;;;;;;;;;;4997329;28;20228;-87
2023/04/29 08:24:28;;;;;;;14.07;11.43;;;;;;;;;;5008275;28;20236;-88
2023/04/29 08:27:04;;;;;;;11.70;10.50;;;;;;;;;;4977837;28;20252;-85
2023/04/29 08:29:32;;;;;;;12.27;11.07;;;;;;;;;;5002462;28;20220;-85
2023/04/29 08:31:57;;;;;;;11.93;10.83;;;;;;;;;;4986838;28;20218;-78
2023/04/29 08:34:26;;;;;;;11.90;10.73;;;;;;;;;;5032444;28;20645;-81
2023/04/29 08:36:52;;;;;;;11.70;10.53;;;;;;;;;;4984609;28;20700;-81
2023/04/29 08:39:17;;;;;;;11.70;10.50;;;;;;;;;;4992128;28;20215;-80
2023/04/29 08:41:48;;;;;;;10.70;9.73;;;;;;;;;;5018315;28;20228;-80
2023/04/29 08:44:16;;;;;;;10.93;9.93;;;;;;;;;;5000707;28;20244;-80
2023/04/29 08:46:45;;;;;;;10.57;9.47;;;;;;;;;;4983348;28;20224;-80
2023/04/29 08:49:12;;;;;;;10.80;9.57;;;;;;;;;;4999670;28;20236;-78
2023/04/29 08:51:38;;;;;;;11.57;10.03;;;;;;;;;;4998810;28;20224;-78
2023/04/29 08:54:06;;;;;;;11.67;10.33;;;;;;;;;;4984560;28;20220;-78
2023/04/29 08:56:31;;;;;;;11.97;10.27;;;;;;;;;;4979355;28;20219;-80
2023/04/29 08:59:03;;;;;;;10.63;9.63;;;;;;;;;;5011496;28;20250;-80
2023/04/29 09:01:31;;;;;;;13.03;9.40;;;;;;;;;;4977794;28;20273;-79
2023/04/29 09:04:15;;;;;;;10.93;9.90;;;;;;;;;;4996160;28;20311;-79
2023/04/29 09:06:41;;;;;;;10.70;9.40;;;;;;;;;;5019467;28;20247;-80
2023/04/29 09:09:06;;;;;;;12.10;10.83;;;;;;;;;;5011976;28;20224;-80
2023/04/29 09:11:32;;;;;;;11.03;9.93;;;;;;;;;;4991113;28;20220;-80
2023/04/29 09:14:01;;;;;;;12.67;10.10;;;;;;;;;;4999760;28;20626;-80
2023/04/29 09:16:27;;;;;;;10.90;8.93;;;;;;;;;;4998070;28;20217;-81
2023/04/29 09:18:55;;;;;;;10.60;8.80;;;;;;;;;;5019792;28;20227;-79
2023/04/29 09:21:26;;;;;;;11.30;9.63;;;;;;;;;;4997035;28;20763;-78
2023/04/29 09:23:55;;;;;;;10.43;9.43;;;;;;;;;;4983324;28;20263;-80
2023/04/29 09:26:21;;;;;;;10.77;8.63;;;;;;;;;;4987824;28;20627;-79
2023/04/29 09:29:12;;;;;;;9.80;8.73;;;;;;;;;;5000801;28;20220;-80
2023/04/29 09:31:38;;;;;;;10.30;9.10;;;;;;;;;;5019356;28;20448;-78
2023/04/29 09:34:04;;;;;;;9.63;8.73;;;;;;;;;;5001994;28;20296;-79
2023/04/29 09:36:46;;;;;;;10.07;8.50;;;;;;;;;;5000653;28;20227;-80
2023/04/29 09:39:18;;;;;;;8.93;8.13;;;;;;;;;;5008149;28;20232;-79
2023/04/29 09:41:53;;;;;;;10.40;9.30;;;;;;;;;;5005710;28;20220;-80
2023/04/29 09:44:22;;;;;;;11.30;8.70;;;;;;;;;;5010685;28;20236;-79
2023/04/29 09:47:04;;;;;;;9.33;8.37;;;;;;;;;;5027674;28;20221;-83
2023/04/29 09:49:36;;;;;;;10.47;8.53;;;;;;;;;;5006128;28;20270;-81
2023/04/29 09:52:06;;;;;;;9.30;8.30;;;;;;;;;;5001421;28;20247;-81
2023/04/29 09:54:37;;;;;;;11.67;8.47;;;;;;;;;;4979214;28;20227;-80
2023/04/29 09:57:08;;;;;;;10.10;8.60;;;;;;;;;;4976809;28;20228;-79
2023/04/29 09:59:35;;;;;;;9.03;8.23;;;;;;;;;;5003628;28;20247;-79
2023/04/29 10:02:02;;;;;;;9.00;8.10;;;;;;;;;;4973842;28;20228;-79
2023/04/29 10:04:28;;;;;;;10.47;8.50;;;;;;;;;;4956956;28;20224;-81
2023/04/29 10:06:56;;;;;;;9.13;8.23;;;;;;;;;;4989267;28;20220;-80
2023/04/29 10:09:22;;;;;;;8.82;7.90;;;;;;;;;;5000841;28;20228;-79
2023/04/29 10:11:49;;;;;;;10.97;8.00;;;;;;;;;;4994918;28;20220;-79
2023/04/29 10:14:21;;;;;;;9.57;8.40;;;;;;;;;;5000058;28;20240;-78
2023/04/29 10:17:08;;;;;;;9.90;7.83;;;;;;;;;;4998633;28;20234;-78
2023/04/29 10:19:38;;;;;;;9.43;7.87;;;;;;;;;;5019424;28;20235;-79
2023/04/29 10:22:24;;;;;;;8.60;7.68;;;;;;;;;;4985009;28;20212;-79
2023/04/29 10:24:50;;;;;;;9.40;8.40;;;;;;;;;;4993983;28;20283;-82
2023/04/29 10:27:15;;;;;;;9.75;8.25;;;;;;;;;;4996867;28;20216;-80
2023/04/29 10:29:41;;;;;;;10.25;7.60;;;;;;;;;;4991114;28;20216;-80
2023/04/29 10:32:08;;;;;;;12.63;7.75;;;;;;;;;;4994322;28;20231;-79
2023/04/29 10:34:34;;;;;;;8.80;7.67;;;;;;;;;;5000842;28;20220;-78
2023/04/29 10:37:02;;;;;;;9.07;7.63;;;;;;;;;;5006548;28;20290;-79
2023/04/29 10:39:51;;;;;;;7.43;6.73;;;;;;;;;;4980771;28;20222;-80
2023/04/29 10:42:45;;;;;;;8.60;7.70;;;;;;;;;;4996654;28;20224;-80
2023/04/29 10:45:20;;;;;;;7.97;7.10;;;;;;;;;;5008592;28;20244;-81
2023/04/29 10:48:01;;;;;;;8.38;6.55;;;;;;;;;;5011947;28;20224;-81
2023/04/29 10:50:29;;;;;;;7.70;6.72;;;;;;;;;;5008061;28;20224;-80
2023/04/29 10:52:55;;;;;;;9.70;6.97;;;;;;;;;;4995022;28;20216;-78
2023/04/29 10:55:22;;;;;;;6.43;5.75;;;;;;;;;;4997746;28;20231;-79
2023/04/29 10:57:50;;;;;;;8.25;6.93;;;;;;;;;;5015055;28;20251;-78
2023/04/29 11:00:27;;;;;;;7.85;7.13;;;;;;;;;;4994632;28;20384;-77
2023/04/29 11:02:56;;;;;;;8.63;6.95;;;;;;;;;;4997886;28;20220;-80
2023/04/29 11:06:04;;;;;;;8.10;7.40;;;;;;;;;;5011451;28;20248;-82
2023/04/29 11:08:30;;;;;;;10.25;7.40;;;;;;;;;;5006190;28;20231;-79
2023/04/29 11:11:00;;;;;;;8.98;7.32;;;;;;;;;;4999905;28;20221;-80
2023/04/29 11:13:26;;;;;;;9.48;6.93;;;;;;;;;;4980358;28;20292;-79
2023/04/29 11:16:12;;;;;;;7.80;7.03;;;;;;;;;;5011270;28;20332;-78
2023/04/29 11:19:06;;;;;;;7.82;7.00;;;;;;;;;;4984791;28;20220;-79
2023/04/29 11:21:35;;;;;;;8.02;7.22;;;;;;;;;;5026078;28;20276;-78
2023/04/29 11:24:05;;;;;;;9.68;6.40;;;;;;;;;;4997993;28;20248;-79
2023/04/29 11:26:33;;;;;;;7.30;6.60;;;;;;;;;;5013405;28;20224;-78
2023/04/29 11:29:01;;;;;;;7.85;6.82;;;;;;;;;;4996685;28;20231;-79
2023/04/29 11:31:30;;;;;;;6.65;5.95;;;;;;;;;;5009599;28;20227;-79
2023/04/29 11:33:55;;;;;;;6.97;6.30;;;;;;;;;;5018387;28;20224;-77
2023/04/29 11:36:21;;;;;;;6.97;6.28;;;;;;;;;;4997822;28;20231;-79
2023/04/29 11:38:49;;;;;;;9.13;6.28;;;;;;;;;;5008847;28;20223;-79
2023/04/29 11:41:15;;;;;;;6.38;5.78;;;;;;;;;;5019644;28;20277;-79
2023/04/29 11:43:45;;;;;;;7.55;6.78;;;;;;;;;;5002262;28;20236;-78
2023/04/29 11:46:14;;;;;;;8.07;6.90;;;;;;;;;;5016008;28;20256;-81
2023/04/29 11:48:48;;;;;;;7.85;7.05;;;;;;;;;;5012621;28;20682;-81
2023/04/29 11:51:15;;;;;;;7.55;6.82;;;;;;;;;;4998182;28;20224;-80
2023/04/29 11:53:42;;;;;;;6.50;5.88;;;;;;;;;;4995440;28;20229;-79
2023/04/29 11:56:09;;;;;;;6.20;5.57;;;;;;;;;;4986102;28;20224;-78
2023/04/29 11:58:36;;;;;;;6.80;6.13;;;;;;;;;;5000625;28;20219;-80
2023/04/29 12:01:03;;;;;;;5.97;5.45;;;;;;;;;;4994455;28;20661;-79
2023/04/29 12:03:28;;;;;;;8.13;6.20;;;;;;;;;;4990578;28;20232;-79
2023/04/29 12:05:54;;;;;;;6.82;6.13;;;;;;;;;;4996401;28;20222;-79
2023/04/29 12:08:26;;;;;;;7.15;5.95;;;;;;;;;;4979628;28;20697;-81
2023/04/29 12:10:56;;;;;;;7.25;6.40;;;;;;;;;;4986590;28;20231;-81
2023/04/29 12:13:26;;;;;;;6.80;6.10;;;;;;;;;;5013726;28;20220;-81
2023/04/29 12:15:56;;;;;;;7.20;6.50;;;;;;;;;;5008364;28;20220;-80
2023/04/29 12:18:22;;;;;;;6.90;6.20;;;;;;;;;;4982878;28;20293;-80
2023/04/29 12:20:50;;;;;;;7.20;6.50;;;;;;;;;;4996163;28;20212;-81
2023/04/29 12:23:23;;;;;;;7.53;6.07;;;;;;;;;;4994529;28;20721;-81
2023/04/29 12:25:54;;;;;;;6.72;6.13;;;;;;;;;;4996794;28;20240;-83
2023/04/29 12:28:20;;;;;;;6.40;5.80;;;;;;;;;;5010613;28;20685;-80
2023/04/29 12:30:46;;;;;;;6.85;6.05;;;;;;;;;;5006877;28;20216;-78
2023/04/29 12:33:20;;;;;;;6.40;5.80;;;;;;;;;;4996268;28;20212;-79
2023/04/29 12:36:09;;;;;;;7.13;6.43;;;;;;;;;;5000389;28;20307;-77
2023/04/29 12:38:35;;;;;;;6.72;5.97;;;;;;;;;;5013604;28;20246;-80
2023/04/29 12:41:01;;;;;;;6.60;5.70;;;;;;;;;;4990130;28;20224;-81
2023/04/29 12:43:29;;;;;;;7.82;6.25;;;;;;;;;;4977684;28;20698;-79
2023/04/29 12:46:04;;;;;;;7.50;5.50;;;;;;;;;;4996902;28;20209;-79
2023/04/29 12:48:33;;;;;;;6.80;6.13;;;;;;;;;;4990125;28;20289;-79
2023/04/29 12:50:59;;;;;;;6.88;6.18;;;;;;;;;;4988407;28;20306;-80
2023/04/29 12:53:28;;;;;;;7.78;6.30;;;;;;;;;;4995684;28;20342;-79
2023/04/29 12:55:56;;;;;;;7.25;5.60;;;;;;;;;;4995659;28;20220;-80
2023/04/29 12:58:21;;;;;;;6.45;5.85;;;;;;;;;;4987616;28;20222;-80
2023/04/29 13:00:47;;;;;;;7.50;5.80;;;;;;;;;;4990687;28;20213;-79
2023/04/29 13:03:13;;;;;;;7.20;5.78;;;;;;;;;;4978677;28;20243;-78
2023/04/29 13:05:39;;;;;;;5.97;5.00;;;;;;;;;;4998219;28;20612;-80
2023/04/29 13:08:05;;;;;;;4.80;3.80;;;;;;;;;;4998043;28;20252;-80
2023/04/29 13:10:31;;;;;;;4.00;3.65;;;;;;;;;;4995336;28;20796;-80
2023/04/29 13:13:02;;;;;;;7.10;5.40;;;;;;;;;;5013152;28;20217;-81
2023/04/29 13:15:27;;;;;;;7.40;5.88;;;;;;;;;;4977808;28;20220;-80
2023/04/29 13:17:53;;;;;;;6.88;5.68;;;;;;;;;;4992827;28;20218;-78
2023/04/29 13:20:22;;;;;;;5.75;5.18;;;;;;;;;;5003943;28;20311;-78
2023/04/29 13:22:48;;;;;;;5.55;5.05;;;;;;;;;;4967391;28;20226;-79
2023/04/29 13:25:16;;;;;;;5.53;5.03;;;;;;;;;;5002702;28;20220;-79
2023/04/29 13:27:42;;;;;;;5.28;4.60;;;;;;;;;;5005993;28;20216;-79
2023/04/29 13:30:09;;;;;;;5.32;4.63;;;;;;;;;;4994901;28;20846;-79
2023/04/29 13:32:34;;;;;;;4.93;4.43;;;;;;;;;;4999328;28;20625;-80
2023/04/29 13:35:00;;;;;;;6.70;4.78;;;;;;;;;;4993382;28;20232;-78
2023/04/29 13:37:26;;;;;;;4.95;4.53;;;;;;;;;;5013816;28;20220;-80
2023/04/29 13:39:54;;;;;;;6.32;4.68;;;;;;;;;;4982610;28;20230;-81
2023/04/29 13:42:19;;;;;;;4.93;4.10;;;;;;;;;;4991255;28;20216;-80
2023/04/29 13:44:45;;;;;;;4.70;4.28;;;;;;;;;;4985993;28;20762;-79
2023/04/29 13:47:11;;;;;;;4.38;3.92;;;;;;;;;;4998622;28;20217;-77
2023/04/29 13:49:39;;;;;;;4.32;3.45;;;;;;;;;;5003590;28;20679;-77
2023/04/29 13:52:08;;;;;;;3.70;3.13;;;;;;;;;;5001485;28;20315;-79
2023/04/29 13:54:36;;;;;;;3.83;2.70;;;;;;;;;;4995899;28;20583;-79
2023/04/29 13:57:04;;;;;;;5.20;3.20;;;;;;;;;;4997448;28;20215;-79
2023/04/29 13:59:30;;;;;;;3.08;2.80;;;;;;;;;;5013401;28;21338;-80
2023/04/29 14:01:57;;;;;;;5.45;2.97;;;;;;;;;;5000067;28;20227;-78
2023/04/29 14:04:23;;;;;;;4.15;2.70;;;;;;;;;;4989649;28;20343;-78
2023/04/29 14:06:50;;;;;;;4.95;3.63;;;;;;;;;;4999109;28;20220;-78
2023/04/29 14:09:17;;;;;;;3.25;2.78;;;;;;;;;;5012626;28;20213;-79
2023/04/29 14:11:46;;;;;;;4.50;3.33;;;;;;;;;;4996518;28;20220;-80
2023/04/29 14:14:11;;;;;;;3.45;3.00;;;;;;;;;;4974844;28;20278;-81
2023/04/29 14:16:42;;;;;;;4.25;3.65;;;;;;;;;;4997864;28;20222;-79
2023/04/29 14:19:10;;;;;;;5.53;3.80;;;;;;;;;;4973708;28;20287;-79
2023/04/29 14:21:36;;;;;;;4.97;3.70;;;;;;;;;;4982006;28;20219;-78
2023/04/29 14:24:02;;;;;;;3.95;3.30;;;;;;;;;;4987586;28;20227;-80
2023/04/29 14:26:27;;;;;;;3.90;3.40;;;;;;;;;;5000403;28;20220;-80
2023/04/29 14:28:56;;;;;;;5.25;3.95;;;;;;;;;;4991181;28;20231;-81
2023/04/29 14:31:42;;;;;;;5.45;3.70;;;;;;;;;;5014059;28;20224;-80
2023/04/29 14:34:07;;;;;;;4.50;3.92;;;;;;;;;;5017815;28;20231;-80
2023/04/29 14:36:35;;;;;;;5.55;4.40;;;;;;;;;;5002410;28;20235;-80
2023/04/29 14:39:06;;;;;;;4.22;3.90;;;;;;;;;;5002645;28;20948;-81